Time;durP1;ratioP1;P1;durP2;ratioP2;P2;SDS_P1;SDS_P2;PMS_P1;PMS_P2;Temp;Humidity;BMP_temperature;BMP_pressure;BME280_temperature;BME280_humidity;BME280_pressure;Samples;Min_cycle;Max_cycle;Signal;HPM_P1;HPM_P2
2023/05/02 00:00:44;;;;;;;5.45;1.77;;;;;;;8.41;100.00;101672.41;5053134;28;20036;-83
2023/05/02 00:03:10;;;;;;;;;;;;;;;8.42;100.00;101668.75;5038214;28;20036;-83
2023/05/02 00:05:36;;;;;;;2.92;1.90;;;;;;;8.37;100.00;101661.94;5052444;28;20309;-84
2023/05/02 00:08:01;;;;;;;3.45;2.05;;;;;;;8.41;100.00;101672.41;5036340;28;20036;-84
2023/05/02 00:10:33;;;;;;;3.25;1.63;;;;;;;8.36;100.00;101656.69;5053075;28;20025;-83
2023/05/02 00:12:58;;;;;;;2.53;1.73;;;;;;;8.34;100.00;101659.53;5036754;28;20035;-85
2023/05/02 00:15:26;;;;;;;3.45;2.30;;;;;;;8.34;100.00;101664.88;5052559;28;20032;-83
2023/05/02 00:17:52;;;;;;;3.00;1.35;;;;;;;8.29;100.00;101660.94;5052305;28;20104;-81
2023/05/02 00:20:25;;;;;;;5.38;2.10;;;;;;;8.37;100.00;101685.22;5036598;28;20063;-85
2023/05/02 00:22:56;;;;;;;2.55;1.63;;;;;;;8.35;100.00;101684.50;5020226;28;20135;-85
2023/05/02 00:25:24;;;;;;;3.05;1.70;;;;;;;8.32;100.00;101685.63;5036188;28;20051;-83
2023/05/02 00:27:53;;;;;;;3.15;1.88;;;;;;;8.29;100.00;101677.84;5053448;28;20037;-84
2023/05/02 00:30:20;;;;;;;4.03;2.45;;;;;;;8.20;100.00;101669.78;5019576;28;20032;-85
2023/05/02 00:32:45;;;;;;;5.90;2.70;;;;;;;8.23;100.00;101694.50;5036367;28;20029;-82
2023/05/02 00:35:11;;;;;;;5.65;2.30;;;;;;;8.19;100.00;101698.41;5051647;28;20032;-83
2023/05/02 00:37:36;;;;;;;4.45;2.47;;;;;;;8.22;100.00;101699.97;5019087;28;20036;-82
2023/05/02 00:40:02;;;;;;;4.63;4.00;;;;;;;8.22;100.00;101700.81;5052531;28;20379;-84
2023/05/02 00:42:33;;;;;;;3.72;2.25;;;;;;;8.26;100.00;101688.84;5052815;28;20033;-85
2023/05/02 00:45:05;;;;;;;3.25;1.98;;;;;;;8.21;100.00;101674.19;5051882;28;20025;-83
2023/05/02 00:47:31;;;;;;;3.95;1.90;;;;;;;8.38;100.00;101692.25;5036215;28;20432;-83
2023/05/02 00:49:56;;;;;;;2.70;2.10;;;;;;;8.38;100.00;101690.41;5052153;28;20124;-82
2023/05/02 00:52:22;;;;;;;2.88;1.95;;;;;;;8.37;100.00;101680.69;5035591;28;20073;-83
2023/05/02 00:54:53;;;;;;;2.03;1.67;;;;;;;8.36;100.00;101681.69;5051852;28;20029;-82
2023/05/02 00:57:22;;;;;;;4.78;1.98;;;;;;;8.42;100.00;101687.50;5036425;28;20072;-83
2023/05/02 00:59:48;;;;;;;4.82;2.00;;;;;;;8.45;100.00;101687.22;5019652;28;20061;-82
2023/05/02 01:02:38;;;;;;;2.83;1.83;;;;;;;8.49;100.00;101683.25;5051567;28;20032;-82
2023/05/02 01:05:36;;;;;;;4.00;2.15;;;;;;;8.48;100.00;101687.78;5051137;28;20131;-82
2023/05/02 01:08:33;;;;;;;3.55;1.90;;;;;;;8.44;100.00;101688.19;5035514;28;20475;-83
2023/05/02 01:11:13;;;;;;;2.13;1.58;;;;;;;8.43;100.00;101695.38;5035738;28;20037;-84
2023/05/02 01:13:44;;;;;;;2.58;1.85;;;;;;;8.43;100.00;101697.22;5035671;28;20086;-82
2023/05/02 01:16:11;;;;;;;3.53;1.90;;;;;;;8.44;100.00;101683.72;5019642;28;20110;-82
2023/05/02 01:18:40;;;;;;;4.68;2.03;;;;;;;8.38;100.00;101689.56;5035651;28;20029;-84
2023/05/02 01:21:07;;;;;;;3.80;2.13;;;;;;;8.28;100.00;101676.16;5052344;28;20033;-83
2023/05/02 01:23:51;;;;;;;2.53;1.60;;;;;;;8.23;100.00;101683.78;5035399;28;20025;-84
2023/05/02 01:26:33;;;;;;;2.22;1.70;;;;;;;8.07;100.00;101688.78;5034954;28;20471;-83
2023/05/02 01:29:03;;;;;;;2.80;1.90;;;;;;;7.95;100.00;101685.38;5052186;28;20132;-82
2023/05/02 01:31:35;;;;;;;5.07;2.05;;;;;;;7.93;100.00;101687.34;5019167;28;20063;-82
2023/05/02 01:34:08;;;;;;;2.60;1.70;;;;;;;7.86;100.00;101684.38;5029984;28;20029;-84
2023/05/02 01:36:39;;;;;;;;;;;;;;;7.83;100.00;101681.09;5019374;28;20055;-83
2023/05/02 01:39:09;;;;;;;4.82;1.60;;;;;;;7.76;100.00;101686.16;5051995;28;20371;-83
2023/05/02 01:41:38;;;;;;;3.45;1.73;;;;;;;7.71;100.00;101683.88;5035933;28;20021;-84
2023/05/02 01:44:07;;;;;;;3.83;1.92;;;;;;;7.64;100.00;101677.34;5051938;28;20094;-82
2023/05/02 01:46:35;;;;;;;3.63;1.83;;;;;;;7.57;100.00;101668.19;5034506;28;20076;-84
2023/05/02 01:49:06;;;;;;;2.40;1.70;;;;;;;7.54;100.00;101670.28;5040133;28;20029;-84
2023/05/02 01:51:34;;;;;;;2.63;1.67;;;;;;;7.47;100.00;101660.09;5022255;28;20132;-83
2023/05/02 01:54:04;;;;;;;2.67;1.77;;;;;;;7.44;100.00;101664.88;5022849;28;20075;-85
2023/05/02 01:56:35;;;;;;;3.67;1.87;;;;;;;7.37;100.00;101658.38;5023925;28;20037;-82
2023/05/02 01:59:08;;;;;;;2.83;1.80;;;;;;;7.34;100.00;101656.81;5022471;28;20300;-83
2023/05/02 02:01:38;;;;;;;5.72;2.03;;;;;;;7.36;100.00;101657.53;5022942;28;20033;-83
2023/05/02 02:04:10;;;;;;;5.50;1.77;;;;;;;7.27;100.00;101643.09;5038597;28;20028;-84
2023/05/02 02:06:41;;;;;;;2.92;1.80;;;;;;;7.36;100.00;101652.16;5022469;28;20040;-85
2023/05/02 02:09:07;;;;;;;3.65;1.98;;;;;;;7.29;100.00;101639.47;5038797;28;20031;-83
2023/05/02 02:11:47;;;;;;;2.47;1.80;;;;;;;7.38;100.00;101650.22;5055842;28;20037;-81
2023/05/02 02:14:23;;;;;;;2.08;1.42;;;;;;;7.39;100.00;101651.91;5035326;28;20407;-82
2023/05/02 02:16:50;;;;;;;2.92;2.10;;;;;;;7.38;100.00;101646.66;5038582;28;20094;-82
2023/05/02 02:19:16;;;;;;;3.80;1.90;;;;;;;7.37;100.00;101631.59;5055493;28;20060;-83
2023/05/02 02:21:54;;;;;;;3.10;1.90;;;;;;;7.43;100.00;101639.94;5054939;28;20111;-83
2023/05/02 02:24:21;;;;;;;2.50;1.65;;;;;;;7.43;100.00;101639.94;5007098;28;20064;-85
2023/05/02 02:26:47;;;;;;;2.60;1.52;;;;;;;7.45;100.00;101640.66;5021446;28;20044;-82
2023/05/02 02:29:20;;;;;;;2.75;1.73;;;;;;;7.50;100.00;101637.59;5054943;28;20045;-83
2023/05/02 02:31:48;;;;;;;2.50;1.75;;;;;;;7.48;100.00;101640.38;5038069;28;20079;-82
2023/05/02 02:34:20;;;;;;;5.40;2.53;;;;;;;7.49;100.00;101646.59;5039142;28;20045;-83
2023/05/02 02:36:56;;;;;;;2.70;1.90;;;;;;;7.52;100.00;101642.81;5054371;28;20391;-82
2023/05/02 02:39:46;;;;;;;3.78;2.08;;;;;;;7.49;100.00;101647.44;5038375;28;20116;-82
2023/05/02 02:42:20;;;;;;;2.28;1.70;;;;;;;7.49;100.00;101649.28;5054791;28;20029;-83
2023/05/02 02:45:05;;;;;;;;;;;;;;;7.50;100.00;101653.66;5038188;28;20114;-83
2023/05/02 02:47:43;;;;;;;3.83;2.17;;;;;;;7.42;100.00;101650.78;5054453;28;19920;-82
2023/05/02 02:50:30;;;;;;;3.08;1.90;;;;;;;7.46;100.00;101653.06;5022858;28;20025;-84
2023/05/02 02:53:08;;;;;;;2.72;1.60;;;;;;;7.45;100.00;101650.53;5054478;28;20037;-82
2023/05/02 02:55:56;;;;;;;3.65;1.92;;;;;;;7.44;100.00;101649.69;5022101;28;20025;-84
2023/05/02 02:58:33;;;;;;;3.88;1.58;;;;;;;7.34;100.00;101643.44;5004519;28;20052;-84
2023/05/02 03:01:03;;;;;;;3.70;2.00;;;;;;;7.37;100.00;101653.00;5038193;28;20045;-82
2023/05/02 03:03:31;;;;;;;4.20;1.75;;;;;;;7.36;100.00;101648.66;5038106;28;20041;-81
2023/05/02 03:05:58;;;;;;;6.57;2.55;;;;;;;7.33;100.00;101657.78;5053211;28;20074;-83
2023/05/02 03:08:26;;;;;;;6.00;2.38;;;;;;;7.24;100.00;101661.25;5021613;28;20040;-83
2023/05/02 03:10:57;;;;;;;3.33;2.13;;;;;;;7.16;100.00;101667.25;5037342;28;20041;-82
2023/05/02 03:13:30;;;;;;;2.95;2.10;;;;;;;7.04;100.00;101646.94;5021648;28;20064;-81
2023/05/02 03:16:24;;;;;;;6.53;1.95;;;;;;;7.02;100.00;101651.56;5021753;28;20446;-84
2023/05/02 03:18:56;;;;;;;4.15;2.10;;;;;;;6.92;100.00;101653.31;5054077;28;20108;-83
2023/05/02 03:21:22;;;;;;;2.92;1.77;;;;;;;6.79;100.00;101646.31;5021125;28;20037;-82
2023/05/02 03:23:51;;;;;;;4.28;1.95;;;;;;;6.69;100.00;101647.22;5021335;28;20183;-83
2023/05/02 03:26:21;;;;;;;3.80;2.30;;;;;;;6.64;100.00;101649.44;5037584;28;20387;-82
2023/05/02 03:28:47;;;;;;;3.47;1.55;;;;;;;6.55;100.00;101646.53;5020185;28;20068;-84
2023/05/02 03:31:14;;;;;;;3.22;1.67;;;;;;;6.49;100.00;101651.56;5054544;28;20037;-82
2023/05/02 03:33:47;;;;;;;3.85;1.77;;;;;;;6.35;100.00;101650.00;5037737;28;20041;-82
2023/05/02 03:36:14;;;;;;;2.60;1.92;;;;;;;6.25;100.00;101649.94;5020609;28;20037;-82
2023/05/02 03:38:39;;;;;;;3.90;2.03;;;;;;;6.10;100.00;101649.38;5037658;28;20044;-85
2023/05/02 03:41:05;;;;;;;2.08;1.73;;;;;;;6.03;100.00;101652.66;5037319;28;20039;-82
2023/05/02 03:43:31;;;;;;;3.85;1.60;;;;;;;5.86;100.00;101643.31;5036817;28;20036;-82
2023/05/02 03:46:10;;;;;;;2.40;1.65;;;;;;;5.81;100.00;101659.69;5053958;28;20136;-84
2023/05/02 03:48:45;;;;;;;2.80;1.77;;;;;;;5.65;100.00;101648.53;5036987;28;20533;-83
2023/05/02 03:51:11;;;;;;;5.28;2.20;;;;;;;5.58;100.00;101650.84;5037739;28;20025;-83
2023/05/02 03:53:37;;;;;;;7.40;1.75;;;;;;;5.52;100.00;101659.34;5037013;28;20083;-82
2023/05/02 03:56:03;;;;;;;3.15;1.55;;;;;;;5.49;100.00;101651.56;5020430;28;20468;-83
2023/05/02 03:58:35;;;;;;;3.28;1.92;;;;;;;5.43;100.00;101638.75;5036863;28;20048;-82
2023/05/02 04:01:00;;;;;;;3.00;1.80;;;;;;;5.42;100.00;101645.88;5020436;28;20052;-82
2023/05/02 04:03:27;;;;;;;2.80;1.90;;;;;;;5.43;100.00;101641.41;5036527;28;20028;-82
2023/05/02 04:05:53;;;;;;;4.75;1.75;;;;;;;5.39;100.00;101630.09;5037141;28;20083;-81
2023/05/02 04:08:21;;;;;;;4.38;2.20;;;;;;;5.43;100.00;101641.41;5052420;28;20418;-84
2023/05/02 04:10:52;;;;;;;3.13;1.60;;;;;;;5.32;100.00;101628.91;5053406;28;20496;-82
2023/05/02 04:13:17;;;;;;;2.40;1.48;;;;;;;5.32;100.00;101642.25;5036598;28;20036;-83
2023/05/02 04:15:44;;;;;;;2.42;1.30;;;;;;;5.24;100.00;101644.66;5019762;28;20041;-81
2023/05/02 04:18:12;;;;;;;4.07;1.67;;;;;;;5.19;100.00;101638.84;5020236;28;20467;-81
2023/05/02 04:20:38;;;;;;;8.77;2.00;;;;;;;5.21;100.00;101636.88;5036794;28;20044;-81
2023/05/02 04:23:06;;;;;;;2.60;1.60;;;;;;;5.21;100.00;101635.09;5019681;28;20032;-83
2023/05/02 04:25:36;;;;;;;2.58;1.52;;;;;;;5.20;100.00;101632.53;5036757;28;20550;-82
2023/05/02 04:28:05;;;;;;;4.43;1.70;;;;;;;5.19;100.00;101639.69;5036439;28;20040;-84
2023/05/02 04:30:33;;;;;;;4.55;1.92;;;;;;;5.18;100.00;101635.31;5035875;28;20029;-82
2023/05/02 04:33:01;;;;;;;3.67;1.88;;;;;;;5.20;100.00;101635.19;5035892;28;20111;-81
2023/05/02 04:35:30;;;;;;;2.35;1.63;;;;;;;5.20;100.00;101637.84;5019904;28;20102;-83
2023/05/02 04:37:56;;;;;;;2.50;1.33;;;;;;;5.21;100.00;101631.53;5019875;28;20040;-83
2023/05/02 04:40:21;;;;;;;6.30;2.10;;;;;;;5.23;100.00;101624.28;5036149;28;20047;-81
2023/05/02 04:42:50;;;;;;;4.13;2.25;;;;;;;5.28;100.00;101622.94;5052466;28;20110;-82
2023/05/02 04:45:18;;;;;;;4.57;1.80;;;;;;;5.33;100.00;101627.94;5019417;28;20031;-83
2023/05/02 04:47:43;;;;;;;2.80;1.83;;;;;;;5.29;100.00;101629.13;5035725;28;20475;-83
2023/05/02 04:50:09;;;;;;;3.50;2.00;;;;;;;5.29;100.00;101629.13;5019278;28;20123;-81
2023/05/02 04:52:38;;;;;;;6.13;2.17;;;;;;;5.32;100.00;101618.25;5036055;28;20029;-81
2023/05/02 04:55:04;;;;;;;5.47;2.00;;;;;;;5.42;100.00;101610.34;5035976;28;20468;-83
2023/05/02 04:57:32;;;;;;;3.00;1.85;;;;;;;5.57;100.00;101621.63;5019081;28;20063;-82
2023/05/02 04:59:58;;;;;;;2.47;1.70;;;;;;;5.57;100.00;101605.63;5019393;28;20036;-82
2023/05/02 05:02:25;;;;;;;2.97;2.08;;;;;;;5.77;100.00;101612.00;5035501;28;20037;-82
2023/05/02 05:04:51;;;;;;;3.72;2.08;;;;;;;5.81;100.00;101608.13;5035740;28;20470;-83
2023/05/02 05:07:16;;;;;;;3.40;2.25;;;;;;;5.86;100.00;101605.94;5051838;28;20029;-84
2023/05/02 05:09:45;;;;;;;1.45;0.98;;;;;;;5.88;100.00;101615.53;5051885;28;20041;-82
2023/05/02 05:12:19;;;;;;;3.85;1.75;;;;;;;5.91;100.00;101627.78;5035774;28;20029;-82
2023/05/02 05:14:49;;;;;;;2.45;1.70;;;;;;;5.87;100.00;101620.97;5018530;28;20037;-83
2023/05/02 05:17:20;;;;;;;3.83;1.80;;;;;;;5.89;100.00;101616.38;5035737;28;20037;-83
2023/05/02 05:19:49;;;;;;;4.30;2.00;;;;;;;6.07;100.00;101625.59;5019825;28;20051;-84
2023/05/02 05:22:15;;;;;;;3.28;1.90;;;;;;;6.23;100.00;101629.69;5018924;28;20040;-81
2023/05/02 05:24:40;;;;;;;3.40;1.55;;;;;;;6.31;100.00;101616.53;5035871;28;20037;-81
2023/05/02 05:27:08;;;;;;;3.15;2.28;;;;;;;6.56;100.00;101629.56;5019861;28;20029;-82
2023/05/02 05:29:36;;;;;;;4.05;2.22;;;;;;;6.90;100.00;101629.34;5035493;28;20044;-84
2023/05/02 05:32:02;;;;;;;3.53;2.25;;;;;;;7.31;100.00;101642.84;5035373;28;20037;-83
2023/05/02 05:34:33;;;;;;;4.75;2.20;;;;;;;7.48;100.00;101644.91;5035689;28;20098;-83
2023/05/02 05:36:59;;;;;;;4.25;2.58;;;;;;;7.55;100.00;101647.91;5019196;28;20052;-81
2023/05/02 05:39:28;;;;;;;4.03;2.78;;;;;;;7.61;100.00;101650.88;5052085;28;20033;-84
2023/05/02 05:41:57;;;;;;;4.60;2.53;;;;;;;7.69;100.00;101647.53;5035625;28;20028;-82
2023/05/02 05:44:24;;;;;;;3.20;2.10;;;;;;;7.85;100.00;101650.53;5035342;28;20444;-85
2023/05/02 05:46:52;;;;;;;4.63;2.83;;;;;;;8.06;100.00;101655.81;5019269;28;20051;-83
2023/05/02 05:49:20;;;;;;;4.05;2.65;;;;;;;8.17;100.00;101628.03;5035276;28;20467;-81
2023/05/02 05:51:46;;;;;;;4.30;2.67;;;;;;;8.57;100.00;101657.47;5036089;28;20064;-83
2023/05/02 05:54:12;;;;;;;5.63;2.60;;;;;;;8.80;100.00;101646.44;5035549;28;20533;-85
2023/05/02 05:56:37;;;;;;;5.70;2.90;;;;;;;8.92;100.00;101653.34;5018601;28;20039;-84
2023/05/02 05:59:08;;;;;;;4.88;2.35;;;;;;;8.93;100.00;101644.31;5035793;28;20037;-85
2023/05/02 06:01:36;;;;;;;6.53;2.80;;;;;;;9.04;100.00;101643.31;5050853;28;20109;-83
2023/05/02 06:04:04;;;;;;;3.63;2.00;;;;;;;9.00;100.00;101642.75;5035189;28;20033;-81
2023/05/02 06:06:33;;;;;;;3.63;2.38;;;;;;;8.93;100.00;101654.19;5034829;28;20463;-82
2023/05/02 06:08:59;;;;;;;4.20;2.83;;;;;;;8.79;100.00;101652.81;5018850;28;20471;-85
2023/05/02 06:11:25;;;;;;;5.80;2.60;;;;;;;8.80;100.00;101660.69;5035437;28;20127;-81
2023/05/02 06:13:51;;;;;;;3.95;2.40;;;;;;;8.77;100.00;101666.34;5035294;28;20068;-83
2023/05/02 06:16:17;;;;;;;4.30;2.45;;;;;;;8.76;100.00;101656.63;5035387;28;20045;-85
2023/05/02 06:18:44;;;;;;;3.40;2.30;;;;;;;8.87;100.00;101663.66;5018844;28;20037;-84
2023/05/02 06:21:09;;;;;;;4.03;2.13;;;;;;;8.99;100.00;101664.34;5035487;28;20037;-84
2023/05/02 06:23:35;;;;;;;4.97;2.83;;;;;;;9.16;100.00;101673.53;5051787;28;20490;-84
2023/05/02 06:26:02;;;;;;;5.32;2.72;;;;;;;9.34;100.00;101673.59;5035235;28;20033;-83
2023/05/02 06:28:33;;;;;;;4.00;2.60;;;;;;;9.46;100.00;101680.50;5051406;28;20032;-81
2023/05/02 06:31:01;;;;;;;3.78;2.13;;;;;;;9.58;100.00;101681.16;5051582;28;20064;-84
2023/05/02 06:33:33;;;;;;;3.35;2.42;;;;;;;9.78;100.00;101682.78;5051132;28;20029;-84
2023/05/02 06:35:59;;;;;;;4.13;2.60;;;;;;;9.98;100.00;101686.22;5022793;28;20132;-84
2023/05/02 06:38:25;;;;;;;5.20;2.92;;;;;;;10.26;100.00;101691.56;5038252;28;20437;-82
2023/05/02 06:40:50;;;;;;;3.70;2.70;;;;;;;10.43;100.00;101684.59;5022104;28;20040;-83
2023/05/02 06:43:18;;;;;;;2.60;1.77;;;;;;;10.51;100.00;101672.06;5054972;28;20104;-82
2023/05/02 06:45:44;;;;;;;4.45;2.45;;;;;;;10.73;100.00;101694.94;5055114;28;20467;-83
2023/05/02 06:48:10;;;;;;;4.28;2.35;;;;;;;11.03;100.00;101700.09;5038237;28;20115;-84
2023/05/02 06:50:36;;;;;;;4.40;2.22;;;;;;;11.19;100.00;101697.50;5055011;28;20032;-83
2023/05/02 06:53:03;;;;;;;3.60;2.38;;;;;;;11.17;100.00;101695.00;5022100;28;20039;-82
2023/05/02 06:55:29;;;;;;;2.92;1.73;;;;;;;11.26;100.00;101700.44;5038362;28;20025;-82
2023/05/02 06:57:56;;;;;;;5.70;3.10;;;;;;;11.35;100.00;101700.34;5038183;28;20029;-83
2023/05/02 07:00:22;;;;;;;5.38;2.75;;;;;;;12.11;100.00;101701.44;5054098;28;20118;-83
2023/05/02 07:02:50;;;;;;;8.65;6.13;;;;;;;13.74;100.00;101683.63;5037610;28;20080;-84
2023/05/02 07:05:16;;;;;;;8.75;6.00;;;;;;;15.34;100.00;101672.09;5037849;28;20086;-85
2023/05/02 07:07:42;;;;;;;4.72;2.65;;;;;;;16.64;97.09;101679.59;5037871;28;20029;-82
2023/05/02 07:10:08;;;;;;;5.10;2.10;;;;;;;17.41;89.79;101680.75;5037462;28;20102;-86
2023/05/02 07:12:34;;;;;;;6.57;3.60;;;;;;;18.09;87.32;101688.25;5037587;28;20426;-83
2023/05/02 07:15:00;;;;;;;3.53;2.10;;;;;;;18.57;78.83;101682.75;5037583;28;20094;-85
2023/05/02 07:17:29;;;;;;;4.97;2.10;;;;;;;19.01;76.92;101678.66;5054150;28;20029;-83
2023/05/02 07:19:55;;;;;;;2.50;2.10;;;;;;;19.82;73.58;101677.50;5037741;28;20033;-85
2023/05/02 07:22:20;;;;;;;3.47;1.98;;;;;;;20.52;69.84;101681.19;5054672;28;20052;-82
2023/05/02 07:24:46;;;;;;;5.05;3.10;;;;;;;21.09;65.11;101673.03;5037229;28;20029;-81
2023/05/02 07:27:14;;;;;;;2.65;1.90;;;;;;;21.43;60.82;101679.03;5020962;28;20036;-83
2023/05/02 07:29:41;;;;;;;4.03;2.40;;;;;;;21.93;60.40;101676.19;5021020;28;20464;-84
2023/05/02 07:32:07;;;;;;;27.30;14.63;;;;;;;22.57;58.20;101672.00;5053999;28;20045;-83
2023/05/02 07:34:33;;;;;;;7.35;3.47;;;;;;;23.27;55.08;101678.69;5053537;28;20036;-82
2023/05/02 07:36:59;;;;;;;16.55;10.55;;;;;;;23.44;54.75;101678.78;5053421;28;20036;-82
2023/05/02 07:39:24;;;;;;;14.77;10.38;;;;;;;22.53;55.41;101686.38;5037256;28;20091;-80
2023/05/02 07:41:53;;;;;;;5.90;3.78;;;;;;;21.30;57.90;101696.38;5036759;28;20159;-83
2023/05/02 07:44:20;;;;;;;6.75;2.30;;;;;;;19.67;62.33;101694.13;5036652;28;20052;-81
2023/05/02 07:46:46;;;;;;;5.88;2.75;;;;;;;18.31;68.89;101687.09;5036980;28;20117;-85
2023/05/02 07:49:12;;;;;;;5.28;2.63;;;;;;;17.45;75.02;101686.63;5036978;28;20021;-84
2023/05/02 07:51:43;;;;;;;6.40;2.40;;;;;;;16.95;78.25;101670.31;5053769;28;20036;-84
2023/05/02 07:54:16;;;;;;;4.03;2.13;;;;;;;16.82;80.57;101672.94;5037898;28;20033;-81
2023/05/02 07:56:42;;;;;;;4.35;1.80;;;;;;;16.71;80.64;101675.09;5036680;28;20064;-82
2023/05/02 07:59:08;;;;;;;4.30;2.00;;;;;;;16.69;81.41;101687.19;5053501;28;20446;-82
2023/05/02 08:01:34;;;;;;;4.68;1.92;;;;;;;16.63;80.65;101680.66;5020546;28;20071;-83
2023/05/02 08:04:00;;;;;;;6.07;1.90;;;;;;;16.57;81.01;101684.16;5036834;28;20028;-84
2023/05/02 08:06:29;;;;;;;6.68;1.80;;;;;;;16.65;79.82;101686.75;5052511;28;20064;-84
2023/05/02 08:08:55;;;;;;;4.78;2.75;;;;;;;16.97;78.97;101687.28;5036796;28;20060;-85
2023/05/02 08:11:24;;;;;;;3.35;2.20;;;;;;;17.24;76.98;101682.91;5053327;28;20517;-84
2023/05/02 08:13:50;;;;;;;4.85;2.30;;;;;;;17.99;75.09;101688.63;5020589;28;20136;-85
2023/05/02 08:16:16;;;;;;;3.08;2.22;;;;;;;19.72;69.77;101684.25;5019985;28;20544;-85
2023/05/02 08:18:42;;;;;;;3.13;1.70;;;;;;;21.12;59.97;101688.97;5052728;28;20024;-85
2023/05/02 08:21:08;;;;;;;5.18;2.03;;;;;;;21.72;56.81;101686.53;5018106;28;20411;-84
2023/05/02 08:23:33;;;;;;;3.45;1.83;;;;;;;21.48;54.93;101687.41;5018284;28;20033;-85
2023/05/02 08:26:03;;;;;;;2.83;1.80;;;;;;;21.37;55.73;101686.22;5036299;28;20025;-87
2023/05/02 08:28:29;;;;;;;5.68;2.20;;;;;;;21.19;54.23;101658.81;5051932;28;20391;-86
2023/05/02 08:30:56;;;;;;;6.55;2.20;;;;;;;21.47;54.21;101688.47;5054054;28;20029;-87
2023/05/02 08:33:22;;;;;;;3.80;1.83;;;;;;;21.93;53.66;101689.88;5036322;28;20112;-86
2023/05/02 08:35:48;;;;;;;3.08;2.17;;;;;;;22.26;50.19;101685.91;5052890;28;20047;-86
2023/05/02 08:38:13;;;;;;;5.25;2.22;;;;;;;22.44;49.15;101699.59;5036332;28;20048;-85
2023/05/02 08:40:40;;;;;;;2.45;1.70;;;;;;;22.25;48.89;101695.19;5053233;28;20037;-86
2023/05/02 08:43:06;;;;;;;2.83;1.42;;;;;;;21.83;49.10;101695.03;5036178;28;20043;-85
2023/05/02 08:45:38;;;;;;;4.90;2.95;;;;;;;22.07;50.69;101687.78;5052763;28;20100;-86
2023/05/02 08:48:07;;;;;;;3.70;2.05;;;;;;;22.93;48.75;101692.09;5052538;28;20025;-85
2023/05/02 08:50:40;;;;;;;4.32;2.10;;;;;;;23.39;46.32;101693.25;5020158;28;20040;-86
2023/05/02 08:53:07;;;;;;;5.68;2.10;;;;;;;22.35;46.49;101692.75;5036394;28;20060;-86
2023/05/02 08:55:34;;;;;;;3.50;2.45;;;;;;;21.52;47.68;101705.88;5019250;28;20446;-86
2023/05/02 08:58:02;;;;;;;2.95;1.70;;;;;;;20.95;48.89;101710.56;5035339;28;20120;-86
2023/05/02 09:00:28;;;;;;;4.15;2.00;;;;;;;20.50;50.41;101699.66;5035856;28;20040;-84
2023/05/02 09:03:10;;;;;;;5.15;1.70;;;;;;;20.94;52.27;101708.06;5053045;28;20025;-85
2023/05/02 09:05:40;;;;;;;5.72;2.80;;;;;;;21.03;50.06;101707.53;5052422;28;20045;-83
2023/05/02 09:08:09;;;;;;;3.65;1.73;;;;;;;20.39;49.65;101723.06;5051558;28;20032;-84
2023/05/02 09:10:36;;;;;;;3.78;2.00;;;;;;;19.93;52.30;101723.25;5017665;28;20120;-82
2023/05/02 09:13:27;;;;;;;4.28;1.60;;;;;;;19.90;52.89;101718.19;5051930;28;20032;-83
2023/05/02 09:15:58;;;;;;;2.00;1.70;;;;;;;19.89;54.31;101719.25;5052665;28;20104;-83
2023/05/02 09:18:37;;;;;;;4.43;1.90;;;;;;;20.18;53.24;101706.97;5035595;28;20033;-84
2023/05/02 09:21:09;;;;;;;3.53;2.22;;;;;;;20.37;53.08;101724.31;5005209;28;20033;-84
2023/05/02 09:23:39;;;;;;;5.28;1.95;;;;;;;20.53;52.37;101726.56;5019581;28;20029;-80
2023/05/02 09:26:23;;;;;;;3.42;1.80;;;;;;;20.32;51.10;101732.34;5018539;28;20065;-83
2023/05/02 09:28:50;;;;;;;3.35;1.80;;;;;;;19.75;53.19;101727.47;5051511;28;20095;-84
2023/05/02 09:31:32;;;;;;;5.55;3.20;;;;;;;19.48;54.19;101737.56;5018891;28;20482;-84
2023/05/02 09:34:07;;;;;;;2.67;1.67;;;;;;;19.24;54.60;101713.69;5035598;28;20490;-85
2023/05/02 09:36:39;;;;;;;2.95;1.40;;;;;;;19.09;54.40;101722.88;5018899;28;20037;-86
2023/05/02 09:39:10;;;;;;;11.67;8.10;;;;;;;19.16;56.32;101732.94;5002506;28;20041;-82
2023/05/02 09:41:43;;;;;;;2.92;2.08;;;;;;;19.18;55.29;101723.50;5052007;28;20032;-82
2023/05/02 09:44:11;;;;;;;14.90;7.47;;;;;;;19.26;55.88;101725.19;5018797;28;20067;-85
2023/05/02 09:46:41;;;;;;;15.88;9.02;;;;;;;19.30;55.41;101731.91;5051486;28;20041;-82
2023/05/02 09:49:10;;;;;;;8.50;5.03;;;;;;;19.19;56.37;101705.28;5034740;28;20494;-85
2023/05/02 09:51:35;;;;;;;6.40;3.05;;;;;;;19.43;55.73;101722.88;5051730;28;20427;-87
2023/05/02 09:54:02;;;;;;;4.00;2.78;;;;;;;19.45;54.99;101723.50;5035198;28;20075;-83
2023/05/02 09:56:27;;;;;;;4.15;2.15;;;;;;;19.25;54.57;101728.97;5051190;28;20068;-82
2023/05/02 09:59:15;;;;;;;6.30;2.25;;;;;;;18.74;54.40;101734.97;5034907;28;20079;-85
2023/05/02 10:01:41;;;;;;;4.60;1.95;;;;;;;18.44;57.24;101736.16;5051335;28;20109;-87
2023/05/02 10:04:15;;;;;;;3.53;1.90;;;;;;;18.48;57.00;101731.13;5019080;28;20040;-84
2023/05/02 10:06:44;;;;;;;5.65;2.20;;;;;;;18.75;58.36;101729.34;5019985;28;20064;-84
2023/05/02 10:09:11;;;;;;;5.43;1.83;;;;;;;18.95;55.97;101731.28;5021552;28;20128;-84
2023/05/02 10:11:41;;;;;;;2.17;1.65;;;;;;;18.85;55.06;101734.41;5038923;28;20085;-88
2023/05/02 10:14:11;;;;;;;5.53;2.13;;;;;;;18.72;57.09;101740.63;5022648;28;20094;-85
2023/05/02 10:17:18;;;;;;;4.50;1.90;;;;;;;18.77;56.80;101751.78;5038682;28;20119;-84
2023/05/02 10:20:04;;;;;;;5.25;2.30;;;;;;;18.66;58.12;101750.47;5024923;28;20036;-83
2023/05/02 10:22:30;;;;;;;6.25;3.75;;;;;;;18.89;57.95;101762.91;5055782;28;20467;-83
2023/05/02 10:24:57;;;;;;;4.60;2.33;;;;;;;18.97;56.44;101757.25;5038955;28;20033;-82
2023/05/02 10:27:26;;;;;;;5.22;2.88;;;;;;;19.04;56.01;101757.28;5055359;28;20029;-88
2023/05/02 10:29:53;;;;;;;6.80;2.92;;;;;;;19.21;56.48;101758.56;5038818;28;20036;-88
2023/05/02 10:32:20;;;;;;;4.45;3.80;;;;;;;19.23;54.23;101745.53;5038985;28;20132;-86
2023/05/02 10:34:46;;;;;;;5.50;3.38;;;;;;;19.01;52.85;101744.06;5038862;28;20361;-84
2023/05/02 10:37:12;;;;;;;4.70;3.30;;;;;;;18.90;52.97;101764.59;5055175;28;20033;-86
2023/05/02 10:39:38;;;;;;;8.15;4.85;;;;;;;18.83;53.69;101755.56;5055248;28;20041;-85
2023/05/02 10:42:04;;;;;;;8.13;5.63;;;;;;;18.98;54.17;101758.09;5022049;28;20468;-88
2023/05/02 10:44:43;;;;;;;8.55;3.90;;;;;;;19.11;54.09;101753.50;5038112;28;20479;-88
2023/05/02 10:47:25;;;;;;;6.95;3.42;;;;;;;19.21;53.91;101742.19;5022410;28;20033;-87
2023/05/02 10:50:00;;;;;;;3.92;2.63;;;;;;;19.26;53.39;101745.09;5039477;28;20029;-85
2023/05/02 10:52:30;;;;;;;6.95;3.83;;;;;;;19.32;53.66;101746.19;5054615;28;20025;-85
2023/05/02 10:55:16;;;;;;;6.65;4.28;;;;;;;19.59;53.79;101716.16;5054900;28;20045;-84
2023/05/02 10:57:57;;;;;;;6.88;3.97;;;;;;;20.05;52.73;101737.91;5055801;28;20060;-85
2023/05/02 11:00:28;;;;;;;6.63;3.90;;;;;;;19.95;50.70;101718.41;5054912;28;20029;-83
2023/05/02 11:02:59;;;;;;;7.35;5.10;;;;;;;20.11;51.20;101726.13;5021536;28;20033;-85
2023/05/02 11:05:26;;;;;;;14.38;7.45;;;;;;;20.35;50.39;101734.63;5014533;28;20493;-86
2023/05/02 11:08:17;;;;;;;7.05;4.45;;;;;;;20.55;49.29;101721.75;5037779;28;20033;-87
2023/05/02 11:10:44;;;;;;;8.52;5.45;;;;;;;21.02;49.49;101727.75;5037237;28;20067;-87
2023/05/02 11:13:11;;;;;;;8.32;5.10;;;;;;;21.60;49.05;101728.56;5038266;28;20472;-86
2023/05/02 11:15:39;;;;;;;2.53;2.17;;;;;;;22.70;44.73;101742.22;5037475;28;20033;-85
2023/05/02 11:18:10;;;;;;;6.63;4.35;;;;;;;22.55;45.96;101752.78;5055349;28;20045;-84
2023/05/02 11:20:38;;;;;;;;;;;;;;;23.00;43.30;101744.97;5053443;28;20071;-84
2023/05/02 11:23:14;;;;;;;4.97;2.53;;;;;;;22.90;43.23;101746.59;5055161;28;19908;-83
2023/05/02 11:25:47;;;;;;;5.70;3.38;;;;;;;23.40;43.00;101757.22;5053551;28;20102;-84
2023/05/02 11:28:47;;;;;;;7.53;4.57;;;;;;;24.22;41.32;101767.34;5037140;28;20031;-86
2023/05/02 11:31:30;;;;;;;5.28;3.53;;;;;;;24.98;39.30;101768.88;5037649;28;20032;-86
2023/05/02 11:34:00;;;;;;;4.63;3.55;;;;;;;26.14;37.20;101761.88;5054904;28;20029;-84
2023/05/02 11:36:33;;;;;;;6.70;4.28;;;;;;;25.58;38.59;101767.41;5020568;28;20037;-84
2023/05/02 11:39:10;;;;;;;4.72;3.53;;;;;;;25.83;37.24;101755.94;5053631;28;20033;-86